createdAt,value
2023-05-05T00:02:37.592Z,101369.88
2023-05-05T00:07:36.441Z,101374.13
2023-05-05T00:12:35.228Z,101365.03
2023-05-05T00:17:35.532Z,101367.69
2023-05-05T00:22:38.617Z,101367.00
2023-05-05T00:27:39.516Z,101365.25
2023-05-05T00:32:43.332Z,101356.41
2023-05-05T00:37:42.019Z,101356.34
2023-05-05T00:42:41.925Z,101364.09
2023-05-05T00:47:41.586Z,101357.34
2023-05-05T00:52:41.769Z,101365.41
2023-05-05T00:57:40.658Z,101361.34
2023-05-05T01:02:40.554Z,101357.09
2023-05-05T01:07:49.525Z,101351.50
2023-05-05T01:12:54.884Z,101350.25
2023-05-05T01:18:00.945Z,101349.97
2023-05-05T01:23:06.238Z,101345.50
2023-05-05T01:28:25.558Z,101343.59
2023-05-05T01:33:30.200Z,101348.28
2023-05-05T01:38:35.977Z,101341.16
2023-05-05T01:43:37.214Z,101339.63
2023-05-05T01:48:38.608Z,101353.00
2023-05-05T01:53:40.383Z,101340.69
2023-05-05T01:58:39.449Z,101345.81
2023-05-05T02:03:41.601Z,101340.91
2023-05-05T02:08:41.790Z,101344.94
2023-05-05T02:13:43.741Z,101339.47
2023-05-05T02:18:49.660Z,101328.63
2023-05-05T02:23:51.825Z,101332.03
2023-05-05T02:28:57.686Z,101330.28
2023-05-05T02:34:01.619Z,101336.53
2023-05-05T02:39:12.259Z,101334.66
2023-05-05T02:44:14.623Z,101329.06
2023-05-05T02:49:16.323Z,101331.56
2023-05-05T02:54:16.380Z,101338.28
2023-05-05T02:59:18.802Z,101339.84
2023-05-05T03:04:27.824Z,101342.94
2023-05-05T03:09:31.545Z,101339.72
2023-05-05T03:14:37.458Z,101346.16
2023-05-05T03:19:42.509Z,101347.09
2023-05-05T03:24:41.579Z,101345.19
2023-05-05T03:29:45.987Z,101346.88
2023-05-05T03:34:49.283Z,101353.81
2023-05-05T03:39:48.150Z,101351.59
2023-05-05T03:44:47.299Z,101360.41
2023-05-05T03:49:46.339Z,101356.91
2023-05-05T03:54:47.346Z,101348.44
2023-05-05T03:59:46.294Z,101358.50
2023-05-05T04:04:45.638Z,101364.56
2023-05-05T04:09:46.242Z,101365.88
2023-05-05T04:14:45.072Z,101370.81
2023-05-05T04:19:43.901Z,101372.13
2023-05-05T04:24:42.821Z,101369.69
2023-05-05T04:29:43.418Z,101362.91
2023-05-05T04:34:42.557Z,101368.03
2023-05-05T04:39:42.924Z,101372.13
2023-05-05T04:44:43.251Z,101369.63
2023-05-05T04:49:42.223Z,101365.63
2023-05-05T04:54:41.265Z,101377.47
2023-05-05T04:59:40.035Z,101376.06
2023-05-05T05:04:40.329Z,101374.53
2023-05-05T05:09:39.191Z,101379.56
2023-05-05T05:14:38.711Z,101379.47
2023-05-05T05:19:37.469Z,101382.88
2023-05-05T05:24:37.690Z,101382.72
2023-05-05T05:29:36.621Z,101379.31
2023-05-05T05:34:35.526Z,101387.31
2023-05-05T05:39:37.219Z,101386.00
2023-05-05T05:44:36.592Z,101397.91
2023-05-05T05:49:36.441Z,101403.38
2023-05-05T05:54:37.095Z,101402.50
2023-05-05T05:59:36.284Z,101402.41
2023-05-05T06:04:35.805Z,101403.97
2023-05-05T06:09:34.656Z,101397.22
2023-05-05T06:14:34.896Z,101400.47
2023-05-05T06:19:34.603Z,101406.75
2023-05-05T06:24:33.650Z,101405.31
2023-05-05T06:29:34.646Z,101402.75
2023-05-05T06:34:33.458Z,101409.19
2023-05-05T06:39:32.220Z,101405.56
2023-05-05T06:44:34.390Z,101405.19
2023-05-05T06:49:34.941Z,101413.84
2023-05-05T06:54:33.589Z,101415.59
2023-05-05T06:59:32.588Z,101415.03
2023-05-05T07:04:31.745Z,101421.19
2023-05-05T07:09:31.852Z,101421.78
2023-05-05T07:14:30.699Z,101415.16
2023-05-05T07:19:29.421Z,101429.06
2023-05-05T07:24:28.479Z,101431.97
2023-05-05T07:29:28.567Z,101433.94
2023-05-05T07:34:27.908Z,101434.59
2023-05-05T07:39:26.634Z,101434.06
2023-05-05T07:44:25.742Z,101437.78
2023-05-05T07:49:26.894Z,101440.75
2023-05-05T07:54:25.671Z,101441.34
2023-05-05T07:59:24.557Z,101447.72
2023-05-05T08:04:23.301Z,101445.16
2023-05-05T08:09:23.378Z,101457.50
2023-05-05T08:14:22.157Z,101450.69
2023-05-05T08:19:28.851Z,101452.41
2023-05-05T08:24:29.746Z,101450.66
2023-05-05T08:29:28.664Z,101448.97
2023-05-05T08:34:27.362Z,101452.91
2023-05-05T08:39:26.088Z,101449.44
2023-05-05T08:44:27.343Z,101451.22
2023-05-05T08:49:27.117Z,101447.56
2023-05-05T08:54:33.308Z,101442.09
2023-05-05T08:59:34.309Z,101445.06
2023-05-05T09:04:33.683Z,101452.72
2023-05-05T09:09:32.718Z,101452.41
2023-05-05T09:14:33.350Z,101446.19
2023-05-05T09:19:33.501Z,101446.25
2023-05-05T09:24:32.221Z,101443.16
2023-05-05T09:29:30.972Z,101442.19
2023-05-05T09:34:29.968Z,101442.06
2023-05-05T09:39:30.179Z,101423.38
2023-05-05T09:44:36.432Z,101420.97
2023-05-05T09:49:37.496Z,101418.03
2023-05-05T09:54:37.669Z,101431.75
2023-05-05T09:59:39.154Z,101424.41
2023-05-05T10:04:37.853Z,101422.69
2023-05-05T10:09:38.006Z,101422.06
2023-05-05T10:14:37.467Z,101411.50
2023-05-05T10:19:38.137Z,101413.63
2023-05-05T10:24:41.485Z,101409.78
2023-05-05T10:29:46.574Z,101400.47
2023-05-05T10:34:52.986Z,101400.25
2023-05-05T10:39:56.562Z,101403.66
2023-05-05T10:44:55.265Z,101397.88
2023-05-05T10:49:58.401Z,101399.94
2023-05-05T10:55:09.065Z,101393.91
2023-05-05T11:00:09.670Z,101387.22
2023-05-05T11:05:14.480Z,101386.00
2023-05-05T11:10:16.470Z,101383.03
2023-05-05T11:15:37.665Z,101377.34
2023-05-05T11:21:17.267Z,101362.88
2023-05-05T11:26:19.178Z,101363.63
2023-05-05T11:31:18.765Z,101351.56
2023-05-05T11:36:20.451Z,101351.88
2023-05-05T11:41:24.643Z,101338.16
2023-05-05T11:46:23.259Z,101336.03
2023-05-05T11:51:22.346Z,101329.91
2023-05-05T11:56:23.340Z,101325.03
2023-05-05T12:01:22.097Z,101311.56
2023-05-05T12:06:20.889Z,101297.25
2023-05-05T12:11:19.869Z,101286.50
2023-05-05T12:16:20.374Z,101282.78
2023-05-05T12:21:20.307Z,101282.75
2023-05-05T12:26:26.824Z,101266.34
2023-05-05T12:31:36.313Z,101276.50
2023-05-05T12:36:37.891Z,101261.97
2023-05-05T12:41:36.995Z,101258.75
2023-05-05T12:46:50.488Z,101256.00
2023-05-05T12:51:57.203Z,101239.09
2023-05-05T12:56:56.419Z,101233.75
2023-05-05T13:01:57.636Z,101238.19
2023-05-05T13:07:13.437Z,101226.56
2023-05-05T13:12:12.704Z,101222.38
2023-05-05T13:17:13.346Z,101212.25
2023-05-05T13:22:13.305Z,101199.09
2023-05-05T13:27:12.655Z,101189.63
2023-05-05T13:32:12.780Z,101189.16
2023-05-05T13:37:14.526Z,101182.66
2023-05-05T13:42:13.158Z,101182.56
2023-05-05T13:47:14.103Z,101176.75
2023-05-05T13:52:12.938Z,101165.31
2023-05-05T13:57:12.485Z,101166.78
2023-05-05T14:02:12.830Z,101166.13
2023-05-05T14:07:11.965Z,101158.44
2023-05-05T14:12:10.773Z,101156.13
2023-05-05T14:17:09.438Z,101151.31
2023-05-05T14:22:09.422Z,101148.75
2023-05-05T14:27:08.121Z,101144.69
2023-05-05T14:32:06.984Z,101143.59
2023-05-05T14:37:05.692Z,101140.00
2023-05-05T14:42:06.081Z,101142.25
2023-05-05T14:47:04.849Z,101148.47
2023-05-05T14:52:03.513Z,101146.13
2023-05-05T14:57:02.454Z,101141.81
2023-05-05T15:02:02.635Z,101141.91
2023-05-05T15:07:01.394Z,101141.34
2023-05-05T15:12:00.113Z,101141.19
2023-05-05T15:16:58.830Z,101154.16
2023-05-05T15:21:58.978Z,101141.78
2023-05-05T15:26:57.738Z,101137.78
2023-05-05T15:31:56.390Z,101138.75
2023-05-05T15:36:55.271Z,101139.81
2023-05-05T15:41:55.457Z,101137.13
2023-05-05T15:46:54.440Z,101139.28
2023-05-05T15:51:53.320Z,101141.63
2023-05-05T15:56:54.452Z,101141.09
2023-05-05T16:01:54.540Z,101140.56
2023-05-05T16:06:53.266Z,101137.53
2023-05-05T16:11:54.710Z,101132.84
2023-05-05T16:16:54.882Z,101134.97
2023-05-05T16:21:53.778Z,101141.69
2023-05-05T16:26:52.610Z,101138.19
2023-05-05T16:31:51.455Z,101137.34
2023-05-05T16:36:51.509Z,101141.84
2023-05-05T16:41:50.226Z,101136.75
2023-05-05T16:46:48.875Z,101142.75
2023-05-05T16:51:47.612Z,101146.41
2023-05-05T16:56:47.714Z,101146.66
2023-05-05T17:01:47.012Z,101153.81
2023-05-05T17:06:46.012Z,101149.66
2023-05-05T17:11:44.663Z,101149.44
2023-05-05T17:16:44.891Z,101154.59
2023-05-05T17:21:44.014Z,101151.88
2023-05-05T17:26:42.782Z,101156.06
2023-05-05T17:31:41.827Z,101158.81
2023-05-05T17:36:41.937Z,101161.56
2023-05-05T17:41:42.107Z,101162.84
2023-05-05T17:46:40.836Z,101175.97
2023-05-05T17:51:41.010Z,101178.19
2023-05-05T17:56:39.729Z,101184.31
2023-05-05T18:01:38.515Z,101192.94
2023-05-05T18:06:37.314Z,101192.59
2023-05-05T18:11:37.599Z,101202.09
2023-05-05T18:16:36.345Z,101202.81
2023-05-05T18:21:35.066Z,101204.41
2023-05-05T18:26:33.769Z,101200.69
2023-05-05T18:31:33.910Z,101203.97
2023-05-05T18:36:32.706Z,101210.03
2023-05-05T18:41:31.776Z,101205.38
2023-05-05T18:46:30.571Z,101209.38
2023-05-05T18:51:30.910Z,101209.16
2023-05-05T18:56:29.611Z,101208.41
2023-05-05T19:01:28.372Z,101211.66
2023-05-05T19:06:27.396Z,101210.72
2023-05-05T19:11:27.667Z,101200.84
2023-05-05T19:16:27.740Z,101196.03
2023-05-05T19:21:28.694Z,101204.50
2023-05-05T19:26:29.246Z,101198.78
2023-05-05T19:31:30.855Z,101203.72
2023-05-05T19:36:31.644Z,101209.47
2023-05-05T19:41:32.741Z,101200.13
2023-05-05T19:46:31.565Z,101197.31
2023-05-05T19:51:31.670Z,101195.13
2023-05-05T19:56:31.925Z,101187.47
2023-05-05T20:01:30.854Z,101182.00
2023-05-05T20:06:29.792Z,101189.69
2023-05-05T20:11:28.528Z,101189.19
2023-05-05T20:16:28.794Z,101195.72
2023-05-05T20:21:28.003Z,101197.22
2023-05-05T20:26:26.737Z,101192.25
2023-05-05T20:31:25.708Z,101190.88
2023-05-05T20:36:26.746Z,101184.94
2023-05-05T20:41:25.502Z,101191.44
2023-05-05T20:46:24.412Z,101187.28
2023-05-05T20:51:23.106Z,101191.25
2023-05-05T20:56:23.139Z,101187.94
2023-05-05T21:01:21.857Z,101183.88
2023-05-05T21:06:20.605Z,101187.63
2023-05-05T21:11:19.329Z,101178.28
2023-05-05T21:16:19.538Z,101190.00
2023-05-05T21:21:18.321Z,101179.91
2023-05-05T21:26:17.138Z,101182.03
2023-05-05T21:36:19.622Z,101177.56
2023-05-05T21:41:18.343Z,101179.72
2023-05-05T21:46:17.713Z,101176.66
2023-05-05T21:51:16.563Z,101183.25
2023-05-05T21:56:16.712Z,101186.31
2023-05-05T22:01:15.399Z,101183.22
2023-05-05T22:06:16.535Z,101180.81
2023-05-05T22:11:16.993Z,101175.78
2023-05-05T22:16:17.552Z,101177.81
2023-05-05T22:21:16.408Z,101179.94
2023-05-05T22:26:16.560Z,101177.41
2023-05-05T22:31:15.371Z,101164.19
2023-05-05T22:36:14.313Z,101169.50
2023-05-05T22:41:13.561Z,101165.81
2023-05-05T22:46:13.590Z,101158.69
2023-05-05T22:51:12.544Z,101161.34
2023-05-05T22:56:11.187Z,101165.69
2023-05-05T23:01:09.941Z,101156.78
2023-05-05T23:06:10.889Z,101156.78
2023-05-05T23:11:09.518Z,101150.50
2023-05-05T23:16:08.383Z,101147.09
2023-05-05T23:21:07.092Z,101146.38
2023-05-05T23:26:07.266Z,101138.59
2023-05-05T23:31:06.041Z,101140.53
2023-05-05T23:36:05.241Z,101142.31
2023-05-05T23:41:03.927Z,101145.84
2023-05-05T23:46:03.990Z,101142.22
2023-05-05T23:51:02.654Z,101134.34
2023-05-05T23:56:01.463Z,101137.97
